Photometre #75[NE_1.6] Paris AOT

File : 20220827_75.hum

27/08/2022,05:55:24,TEMP=17.7,BA=5.68,STAT.A=4.5,ExtBa=13.91
27/08/2022,05:59:17,TEMP=17.9,BA=5.68,STAT.A=4.5,ExtBa=13.89
27/08/2022,06:03:50,TEMP=17.9,BA=5.40,STAT.A=4.5,ExtBa=13.87
27/08/2022,06:09:12,TEMP=18.0,BA=5.40,STAT.A=4.5,ExtBa=13.90
27/08/2022,06:15:40,TEMP=18.2,BA=5.40,STAT.A=4.5,ExtBa=13.91
27/08/2022,06:23:35,TEMP=18.4,BA=5.68,STAT.A=4.5,ExtBa=13.92
27/08/2022,06:33:33,TEMP=18.8,BA=5.68,STAT.B=4.5,ExtBa=13.92
27/08/2022,06:42:45,TEMP=19.6,BA=5.36,STAT.A=4.5,ExtBa=12.97
27/08/2022,06:44:37,TEMP=19.9,BA=5.36,STAT.A=4.5,ExtBa=13.00
27/08/2022,06:49:32,TEMP=19.9,BA=5.36,STAT.A=4.5,ExtBa=13.20
27/08/2022,06:56:16,TEMP=20.2,BA=5.40,STAT.A=4.5,ExtBa=13.45
27/08/2022,07:03:58,TEMP=20.4,BA=5.68,STAT.C=4.5,ExtBa=13.67
27/08/2022,07:17:57,TEMP=21.2,BA=5.36,STAT.A=4.5,ExtBa=12.81
27/08/2022,07:23:19,TEMP=21.1,BA=5.60,STAT.A=5.0,ExtBa=13.10
27/08/2022,07:35:45,TEMP=21.5,BA=5.68,STAT.A=5.0,ExtBa=13.53
27/08/2022,07:50:53,TEMP=22.8,BA=5.68,STAT.A=5.0,ExtBa=13.74
27/08/2022,08:09:50,TEMP=23.0,BA=5.68,STAT.B=5.0,ExtBa=13.91
27/08/2022,08:50:15,TEMP=25.3,BA=5.48,STAT.B=5.0,ExtBa=13.90
27/08/2022,08:59:01,TEMP=25.5,BA=5.48,STAT.F,ExtBa=13.00
27/08/2022,09:13:00,TEMP=25.6,BA=5.36,STAT.D=5.0,ExtBa=12.82
27/08/2022,09:22:51,TEMP=25.2,BA=5.68,STAT.D=5.0,ExtBa=13.28
27/08/2022,09:37:51,TEMP=25.7,BA=5.68,STAT.D=5.0,ExtBa=13.60
27/08/2022,09:52:53,TEMP=26.7,BA=5.68,STAT.F,ExtBa=13.68
27/08/2022,10:11:34,TEMP=27.2,BA=5.40,STAT.D=5.0,ExtBa=13.21
27/08/2022,10:22:51,TEMP=27.0,BA=5.68,STAT.D=5.5,ExtBa=13.51
27/08/2022,10:37:52,TEMP=27.9,BA=5.68,STAT.D=5.5,ExtBa=13.65
27/08/2022,10:52:53,TEMP=28.4,BA=5.68,STAT.F,ExtBa=13.74
27/08/2022,11:07:52,TEMP=29.2,BA=5.36,STAT.D=5.0,ExtBa=13.09
27/08/2022,11:22:52,TEMP=28.8,BA=5.64,STAT.D=5.5,ExtBa=13.55
27/08/2022,11:37:52,TEMP=29.2,BA=5.64,STAT.D=5.5,ExtBa=13.68
27/08/2022,11:52:53,TEMP=29.4,BA=5.64,STAT.F,ExtBa=13.75
27/08/2022,12:07:52,TEMP=29.8,BA=5.60,STAT.D=5.5,ExtBa=13.61
27/08/2022,12:22:52,TEMP=29.5,BA=5.64,STAT.D=5.5,ExtBa=13.75
27/08/2022,12:37:52,TEMP=30.1,BA=5.64,STAT.D=5.5,ExtBa=13.76
27/08/2022,12:52:53,TEMP=29.5,BA=5.60,STAT.F,ExtBa=13.74
27/08/2022,13:07:52,TEMP=29.6,BA=5.32,STAT.D=5.5,ExtBa=13.03
27/08/2022,13:22:51,TEMP=29.9,BA=5.60,STAT.D=5.5,ExtBa=13.52
27/08/2022,13:37:51,TEMP=30.1,BA=5.60,STAT.D=5.5,ExtBa=13.66
27/08/2022,13:52:53,TEMP=30.4,BA=5.60,STAT.F,ExtBa=13.70
27/08/2022,14:07:51,TEMP=30.1,BA=5.32,STAT.D=5.5,ExtBa=13.03
27/08/2022,14:22:51,TEMP=30.2,BA=5.56,STAT.D=5.5,ExtBa=13.50
27/08/2022,14:37:51,TEMP=29.6,BA=5.56,STAT.D=5.5,ExtBa=13.62
27/08/2022,14:52:52,TEMP=29.8,BA=5.60,STAT.F,ExtBa=13.68
27/08/2022,15:06:49,TEMP=30.2,BA=5.32,STAT.B=5.5,ExtBa=12.93
27/08/2022,15:35:54,TEMP=29.3,BA=5.56,STAT.B=5.5,ExtBa=13.48
27/08/2022,15:54:51,TEMP=28.9,BA=5.56,STAT.A=5.5,ExtBa=13.38
27/08/2022,16:09:59,TEMP=28.9,BA=5.56,STAT.A=5.5,ExtBa=13.52
27/08/2022,16:22:25,TEMP=28.8,BA=5.60,STAT.A=5.5,ExtBa=13.54
27/08/2022,16:32:51,TEMP=28.0,BA=5.60,STAT.A=5.5,ExtBa=13.59
27/08/2022,16:41:46,TEMP=27.6,BA=5.60,STAT.C=5.5,ExtBa=13.62
27/08/2022,16:55:40,TEMP=28.0,BA=5.28,STAT.A=5.0,ExtBa=12.97
27/08/2022,16:57:34,TEMP=28.2,BA=5.28,STAT.A=5.0,ExtBa=13.02
27/08/2022,17:04:56,TEMP=27.7,BA=5.32,STAT.A=5.5,ExtBa=13.29
27/08/2022,17:07:26,TEMP=27.9,BA=5.32,STAT.A=5.0,ExtBa=13.29
27/08/2022,17:12:10,TEMP=27.6,BA=5.56,STAT.B=5.0,ExtBa=13.34
27/08/2022,17:22:07,TEMP=27.3,BA=5.28,STAT.A=5.0,ExtBa=12.96
27/08/2022,17:30:02,TEMP=27.0,BA=5.28,STAT.A=5.5,ExtBa=13.25
27/08/2022,17:36:30,TEMP=26.8,BA=5.32,STAT.A=5.0,ExtBa=13.38
27/08/2022,17:41:52,TEMP=26.7,BA=5.60,STAT.A=5.0,ExtBa=13.41
27/08/2022,17:46:25,TEMP=26.5,BA=5.60,STAT.A=5.0,ExtBa=13.43
27/08/2022,17:50:18,TEMP=26.4,BA=5.56,STAT.A=5.0,ExtBa=13.41